sensor_id;sensor_type;location;lat;lon;timestamp;temperature;humidity
13115;DHT22;6623;52.120;8.660;2024-03-23T00:53:06;23.10;43.00
13115;DHT22;6623;52.120;8.660;2024-03-23T00:55:32;23.10;43.10
13115;DHT22;6623;52.120;8.660;2024-03-23T00:57:57;23.10;43.00
13115;DHT22;6623;52.120;8.660;2024-03-23T01:00:23;23.00;43.10
13115;DHT22;6623;52.120;8.660;2024-03-23T01:02:48;23.00;43.10
13115;DHT22;6623;52.120;8.660;2024-03-23T01:05:14;22.90;43.10
13115;DHT22;6623;52.120;8.660;2024-03-23T01:07:39;22.90;43.20
13115;DHT22;6623;52.120;8.660;2024-03-23T01:10:05;22.80;43.20
13115;DHT22;6623;52.120;8.660;2024-03-23T01:12:31;22.80;43.30
13115;DHT22;6623;52.120;8.660;2024-03-23T01:14:56;22.70;43.30
13115;DHT22;6623;52.120;8.660;2024-03-23T01:17:22;22.70;43.40
13115;DHT22;6623;52.120;8.660;2024-03-23T01:19:47;22.60;43.40
13115;DHT22;6623;52.120;8.660;2024-03-23T01:22:13;22.60;43.50
13115;DHT22;6623;52.120;8.660;2024-03-23T01:24:38;22.60;43.60
13115;DHT22;6623;52.120;8.660;2024-03-23T01:27:04;22.50;43.60
13115;DHT22;6623;52.120;8.660;2024-03-23T01:29:29;22.50;43.70
13115;DHT22;6623;52.120;8.660;2024-03-23T01:31:55;22.40;43.70
13115;DHT22;6623;52.120;8.660;2024-03-23T01:34:20;22.40;43.70
13115;DHT22;6623;52.120;8.660;2024-03-23T01:36:46;22.30;43.80
13115;DHT22;6623;52.120;8.660;2024-03-23T01:39:12;22.30;43.90
13115;DHT22;6623;52.120;8.660;2024-03-23T01:41:39;22.30;44.00
13115;DHT22;6623;52.120;8.660;2024-03-23T01:44:08;22.30;44.00
13115;DHT22;6623;52.120;8.660;2024-03-23T01:46:34;22.20;44.00
13115;DHT22;6623;52.120;8.660;2024-03-23T01:49:00;22.20;44.00
13115;DHT22;6623;52.120;8.660;2024-03-23T01:51:26;22.20;44.10
13115;DHT22;6623;52.120;8.660;2024-03-23T01:53:53;22.20;44.10
13115;DHT22;6623;52.120;8.660;2024-03-23T01:56:20;22.20;44.10
13115;DHT22;6623;52.120;8.660;2024-03-23T01:58:45;22.20;44.20
13115;DHT22;6623;52.120;8.660;2024-03-23T02:01:11;22.30;44.20
13115;DHT22;6623;52.120;8.660;2024-03-23T02:03:37;22.30;44.10
13115;DHT22;6623;52.120;8.660;2024-03-23T02:06:03;22.40;44.10
13115;DHT22;6623;52.120;8.660;2024-03-23T02:08:29;22.40;44.00
13115;DHT22;6623;52.120;8.660;2024-03-23T02:10:56;22.50;44.00
13115;DHT22;6623;52.120;8.660;2024-03-23T02:13:21;22.50;43.90
13115;DHT22;6623;52.120;8.660;2024-03-23T02:15:47;22.60;43.90
13115;DHT22;6623;52.120;8.660;2024-03-23T02:18:13;22.60;43.80
13115;DHT22;6623;52.120;8.660;2024-03-23T02:20:39;22.70;43.70
13115;DHT22;6623;52.120;8.660;2024-03-23T02:23:05;22.70;43.60
13115;DHT22;6623;52.120;8.660;2024-03-23T02:25:33;22.80;43.60
13115;DHT22;6623;52.120;8.660;2024-03-23T02:27:59;22.80;43.50
13115;DHT22;6623;52.120;8.660;2024-03-23T02:30:26;22.90;43.50
13115;DHT22;6623;52.120;8.660;2024-03-23T02:32:52;22.90;43.40
13115;DHT22;6623;52.120;8.660;2024-03-23T02:35:17;22.90;43.30
13115;DHT22;6623;52.120;8.660;2024-03-23T02:37:43;23.00;43.30
13115;DHT22;6623;52.120;8.660;2024-03-23T02:40:08;23.00;43.20
13115;DHT22;6623;52.120;8.660;2024-03-23T02:42:34;23.10;43.20
13115;DHT22;6623;52.120;8.660;2024-03-23T02:45:00;23.10;43.00
13115;DHT22;6623;52.120;8.660;2024-03-23T02:47:25;23.10;43.00
13115;DHT22;6623;52.120;8.660;2024-03-23T02:49:51;23.10;43.00
13115;DHT22;6623;52.120;8.660;2024-03-23T02:52:16;23.10;43.00
13115;DHT22;6623;52.120;8.660;2024-03-23T02:54:42;23.10;42.90
13115;DHT22;6623;52.120;8.660;2024-03-23T02:57:11;23.00;43.00
13115;DHT22;6623;52.120;8.660;2024-03-23T02:59:36;23.00;43.00
13115;DHT22;6623;52.120;8.660;2024-03-23T03:02:02;22.90;43.00
13115;DHT22;6623;52.120;8.660;2024-03-23T03:04:29;22.90;43.10
13115;DHT22;6623;52.120;8.660;2024-03-23T03:06:55;22.90;43.10
13115;DHT22;6623;52.120;8.660;2024-03-23T03:09:20;22.80;43.10
13115;DHT22;6623;52.120;8.660;2024-03-23T03:11:46;22.80;43.20
13115;DHT22;6623;52.120;8.660;2024-03-23T03:14:12;22.70;43.20
13115;DHT22;6623;52.120;8.660;2024-03-23T03:16:37;22.70;43.30
13115;DHT22;6623;52.120;8.660;2024-03-23T03:19:03;22.60;43.30
13115;DHT22;6623;52.120;8.660;2024-03-23T03:21:28;22.60;43.40
13115;DHT22;6623;52.120;8.660;2024-03-23T03:23:54;22.50;43.40
13115;DHT22;6623;52.120;8.660;2024-03-23T03:26:22;22.50;43.50
13115;DHT22;6623;52.120;8.660;2024-03-23T03:28:48;22.40;43.50
13115;DHT22;6623;52.120;8.660;2024-03-23T03:31:17;22.40;43.60
13115;DHT22;6623;52.120;8.660;2024-03-23T03:33:44;22.40;43.60
13115;DHT22;6623;52.120;8.660;2024-03-23T03:36:10;22.30;43.70
13115;DHT22;6623;52.120;8.660;2024-03-23T03:38:36;22.30;43.70
13115;DHT22;6623;52.120;8.660;2024-03-23T03:41:02;22.30;43.80
13115;DHT22;6623;52.120;8.660;2024-03-23T03:43:28;22.20;43.80
13115;DHT22;6623;52.120;8.660;2024-03-23T03:45:57;22.20;43.90
13115;DHT22;6623;52.120;8.660;2024-03-23T03:48:23;22.20;43.90
13115;DHT22;6623;52.120;8.660;2024-03-23T03:50:49;22.20;44.00
13115;DHT22;6623;52.120;8.660;2024-03-23T03:53:14;22.20;44.00
13115;DHT22;6623;52.120;8.660;2024-03-23T03:55:40;22.20;44.00
13115;DHT22;6623;52.120;8.660;2024-03-23T03:58:06;22.20;44.00
13115;DHT22;6623;52.120;8.660;2024-03-23T04:00:31;22.30;44.00
13115;DHT22;6623;52.120;8.660;2024-03-23T04:02:57;22.30;44.00
13115;DHT22;6623;52.120;8.660;2024-03-23T04:05:23;22.30;43.90
13115;DHT22;6623;52.120;8.660;2024-03-23T04:07:48;22.40;43.90
13115;DHT22;6623;52.120;8.660;2024-03-23T04:10:14;22.40;43.80
13115;DHT22;6623;52.120;8.660;2024-03-23T04:12:40;22.50;43.80
13115;DHT22;6623;52.120;8.660;2024-03-23T04:15:07;22.50;43.70
13115;DHT22;6623;52.120;8.660;2024-03-23T04:17:32;22.60;43.70
13115;DHT22;6623;52.120;8.660;2024-03-23T04:19:59;22.60;43.60
13115;DHT22;6623;52.120;8.660;2024-03-23T04:22:26;22.70;43.50
13115;DHT22;6623;52.120;8.660;2024-03-23T04:24:55;22.70;43.40
13115;DHT22;6623;52.120;8.660;2024-03-23T04:27:21;22.80;43.30
13115;DHT22;6623;52.120;8.660;2024-03-23T04:29:50;22.80;43.30
13115;DHT22;6623;52.120;8.660;2024-03-23T04:32:16;22.90;43.30
13115;DHT22;6623;52.120;8.660;2024-03-23T04:34:43;22.90;43.10
13115;DHT22;6623;52.120;8.660;2024-03-23T04:37:09;22.90;43.10
13115;DHT22;6623;52.120;8.660;2024-03-23T04:39:36;23.00;43.00
13115;DHT22;6623;52.120;8.660;2024-03-23T04:42:02;23.10;43.00
13115;DHT22;6623;52.120;8.660;2024-03-23T04:44:28;23.10;43.00
13115;DHT22;6623;52.120;8.660;2024-03-23T04:46:53;23.10;42.80
13115;DHT22;6623;52.120;8.660;2024-03-23T04:49:19;23.10;42.80
13115;DHT22;6623;52.120;8.660;2024-03-23T04:51:44;23.10;42.80
13115;DHT22;6623;52.120;8.660;2024-03-23T04:54:12;23.10;42.80
13115;DHT22;6623;52.120;8.660;2024-03-23T04:56:37;23.00;43.40
13115;DHT22;6623;52.120;8.660;2024-03-23T04:59:03;23.00;42.80
13115;DHT22;6623;52.120;8.660;2024-03-23T05:01:33;22.90;42.80
13115;DHT22;6623;52.120;8.660;2024-03-23T05:03:59;22.90;42.80
13115;DHT22;6623;52.120;8.660;2024-03-23T05:06:25;22.90;42.90
13115;DHT22;6623;52.120;8.660;2024-03-23T05:08:53;22.80;43.00
13115;DHT22;6623;52.120;8.660;2024-03-23T05:11:19;22.80;43.00
13115;DHT22;6623;52.120;8.660;2024-03-23T05:13:46;22.70;43.00
13115;DHT22;6623;52.120;8.660;2024-03-23T05:16:11;22.70;43.10
13115;DHT22;6623;52.120;8.660;2024-03-23T05:18:37;22.70;43.20
13115;DHT22;6623;52.120;8.660;2024-03-23T05:21:03;22.60;43.20
13115;DHT22;6623;52.120;8.660;2024-03-23T05:23:29;22.60;43.30
13115;DHT22;6623;52.120;8.660;2024-03-23T05:25:55;22.50;43.30
13115;DHT22;6623;52.120;8.660;2024-03-23T05:28:21;22.50;43.40
13115;DHT22;6623;52.120;8.660;2024-03-23T05:30:53;22.40;43.40
13115;DHT22;6623;52.120;8.660;2024-03-23T05:33:20;22.40;43.50
13115;DHT22;6623;52.120;8.660;2024-03-23T05:35:46;22.30;43.50
13115;DHT22;6623;52.120;8.660;2024-03-23T05:38:13;22.30;43.50
13115;DHT22;6623;52.120;8.660;2024-03-23T05:40:39;22.30;43.60
13115;DHT22;6623;52.120;8.660;2024-03-23T05:43:06;22.20;43.60
13115;DHT22;6623;52.120;8.660;2024-03-23T05:45:32;22.20;43.70
13115;DHT22;6623;52.120;8.660;2024-03-23T05:47:58;22.20;43.80
13115;DHT22;6623;52.120;8.660;2024-03-23T05:50:23;22.20;43.80
13115;DHT22;6623;52.120;8.660;2024-03-23T05:52:50;22.20;43.80
13115;DHT22;6623;52.120;8.660;2024-03-23T05:55:15;22.20;43.80
13115;DHT22;6623;52.120;8.660;2024-03-23T05:57:41;22.20;44.50
13115;DHT22;6623;52.120;8.660;2024-03-23T06:00:07;22.30;43.90
13115;DHT22;6623;52.120;8.660;2024-03-23T06:02:42;22.30;43.80
13115;DHT22;6623;52.120;8.660;2024-03-23T06:05:11;22.30;43.80
13115;DHT22;6623;52.120;8.660;2024-03-23T06:07:37;22.40;43.70
13115;DHT22;6623;52.120;8.660;2024-03-23T06:10:03;22.40;43.60
13115;DHT22;6623;52.120;8.660;2024-03-23T06:12:29;22.50;43.60
13115;DHT22;6623;52.120;8.660;2024-03-23T06:14:54;22.60;43.60
13115;DHT22;6623;52.120;8.660;2024-03-23T06:17:20;22.60;43.50
13115;DHT22;6623;52.120;8.660;2024-03-23T06:19:45;22.60;43.40
13115;DHT22;6623;52.120;8.660;2024-03-23T06:22:11;22.70;43.40
13115;DHT22;6623;52.120;8.660;2024-03-23T06:24:36;22.80;43.30
13115;DHT22;6623;52.120;8.660;2024-03-23T06:27:02;22.80;43.20
13115;DHT22;6623;52.120;8.660;2024-03-23T06:29:27;22.80;43.10
13115;DHT22;6623;52.120;8.660;2024-03-23T06:31:54;22.90;43.20
13115;DHT22;6623;52.120;8.660;2024-03-23T06:34:20;22.90;43.00
13115;DHT22;6623;52.120;8.660;2024-03-23T06:36:47;22.90;42.90
13115;DHT22;6623;52.120;8.660;2024-03-23T06:39:12;23.00;42.90
13115;DHT22;6623;52.120;8.660;2024-03-23T06:41:51;23.00;42.80
13115;DHT22;6623;52.120;8.660;2024-03-23T06:44:17;23.10;42.80
13115;DHT22;6623;52.120;8.660;2024-03-23T06:46:42;23.10;42.70
13115;DHT22;6623;52.120;8.660;2024-03-23T06:49:08;23.10;42.60
13115;DHT22;6623;52.120;8.660;2024-03-23T06:51:33;23.10;42.60
13115;DHT22;6623;52.120;8.660;2024-03-23T06:53:59;23.10;42.60
13115;DHT22;6623;52.120;8.660;2024-03-23T06:56:24;23.00;42.60
13115;DHT22;6623;52.120;8.660;2024-03-23T06:58:50;23.00;42.70
13115;DHT22;6623;52.120;8.660;2024-03-23T07:01:15;23.00;42.70
13115;DHT22;6623;52.120;8.660;2024-03-23T07:03:41;22.90;42.70
13115;DHT22;6623;52.120;8.660;2024-03-23T07:06:06;22.90;42.80
13115;DHT22;6623;52.120;8.660;2024-03-23T07:08:34;22.80;42.80
13115;DHT22;6623;52.120;8.660;2024-03-23T07:10:59;22.80;42.90
13115;DHT22;6623;52.120;8.660;2024-03-23T07:13:25;22.70;42.90
13115;DHT22;6623;52.120;8.660;2024-03-23T07:15:54;22.70;43.00
13115;DHT22;6623;52.120;8.660;2024-03-23T07:18:21;22.60;43.00
13115;DHT22;6623;52.120;8.660;2024-03-23T07:20:56;22.60;43.10
13115;DHT22;6623;52.120;8.660;2024-03-23T07:23:22;22.50;43.10
13115;DHT22;6623;52.120;8.660;2024-03-23T07:28:23;22.40;43.20
13115;DHT22;6623;52.120;8.660;2024-03-23T07:30:58;22.40;43.20
13115;DHT22;6623;52.120;8.660;2024-03-23T07:33:23;22.30;43.30
13115;DHT22;6623;52.120;8.660;2024-03-23T07:35:49;22.30;43.30
13115;DHT22;6623;52.120;8.660;2024-03-23T07:38:14;22.30;43.40
13115;DHT22;6623;52.120;8.660;2024-03-23T07:40:40;22.20;43.40
13115;DHT22;6623;52.120;8.660;2024-03-23T07:43:05;22.20;43.50
13115;DHT22;6623;52.120;8.660;2024-03-23T07:45:31;22.20;43.50
13115;DHT22;6623;52.120;8.660;2024-03-23T07:47:56;22.20;43.60
13115;DHT22;6623;52.120;8.660;2024-03-23T07:50:22;22.20;43.60
13115;DHT22;6623;52.120;8.660;2024-03-23T07:52:47;22.20;43.60
13115;DHT22;6623;52.120;8.660;2024-03-23T07:55:13;22.20;43.60
13115;DHT22;6623;52.120;8.660;2024-03-23T07:57:38;22.20;43.60
13115;DHT22;6623;52.120;8.660;2024-03-23T08:00:04;22.20;43.60
13115;DHT22;6623;52.120;8.660;2024-03-23T08:02:30;22.20;43.60
13115;DHT22;6623;52.120;8.660;2024-03-23T08:04:56;22.30;43.60
13115;DHT22;6623;52.120;8.660;2024-03-23T08:07:21;22.30;43.50
13115;DHT22;6623;52.120;8.660;2024-03-23T08:09:47;22.40;43.50
13115;DHT22;6623;52.120;8.660;2024-03-23T08:12:12;22.40;43.40
13115;DHT22;6623;52.120;8.660;2024-03-23T08:14:38;22.50;43.40
13115;DHT22;6623;52.120;8.660;2024-03-23T08:17:03;22.60;43.40
13115;DHT22;6623;52.120;8.660;2024-03-23T08:19:29;22.60;43.30
13115;DHT22;6623;52.120;8.660;2024-03-23T08:21:54;22.60;43.20
13115;DHT22;6623;52.120;8.660;2024-03-23T08:24:20;22.70;43.10
13115;DHT22;6623;52.120;8.660;2024-03-23T08:26:45;22.70;43.00
13115;DHT22;6623;52.120;8.660;2024-03-23T08:29:10;22.80;43.00
13115;DHT22;6623;52.120;8.660;2024-03-23T08:31:36;22.80;42.90
13115;DHT22;6623;52.120;8.660;2024-03-23T08:34:02;22.80;42.80
13115;DHT22;6623;52.120;8.660;2024-03-23T08:36:27;22.90;42.80
13115;DHT22;6623;52.120;8.660;2024-03-23T08:38:53;23.00;42.80
13115;DHT22;6623;52.120;8.660;2024-03-23T08:41:20;23.00;42.70
13115;DHT22;6623;52.120;8.660;2024-03-23T08:43:45;23.00;42.60
13115;DHT22;6623;52.120;8.660;2024-03-23T08:46:13;23.00;42.50
13115;DHT22;6623;52.120;8.660;2024-03-23T08:48:40;23.00;42.50
13115;DHT22;6623;52.120;8.660;2024-03-23T08:51:07;23.00;42.50
13115;DHT22;6623;52.120;8.660;2024-03-23T08:53:34;23.00;42.50
13115;DHT22;6623;52.120;8.660;2024-03-23T08:56:00;23.00;42.50
13115;DHT22;6623;52.120;8.660;2024-03-23T08:58:29;22.90;42.50
13115;DHT22;6623;52.120;8.660;2024-03-23T09:00:57;22.90;42.50
13115;DHT22;6623;52.120;8.660;2024-03-23T09:03:26;22.80;42.50
13115;DHT22;6623;52.120;8.660;2024-03-23T09:05:52;22.80;42.60
13115;DHT22;6623;52.120;8.660;2024-03-23T09:08:18;22.70;42.60
13115;DHT22;6623;52.120;8.660;2024-03-23T09:10:44;22.70;42.70
13115;DHT22;6623;52.120;8.660;2024-03-23T09:13:09;22.70;42.80
13115;DHT22;6623;52.120;8.660;2024-03-23T09:15:37;22.60;42.80
13115;DHT22;6623;52.120;8.660;2024-03-23T09:18:03;22.60;42.90
13115;DHT22;6623;52.120;8.660;2024-03-23T09:20:32;22.50;42.90
13115;DHT22;6623;52.120;8.660;2024-03-23T09:22:58;22.40;42.90
13115;DHT22;6623;52.120;8.660;2024-03-23T09:25:23;22.40;43.00
13115;DHT22;6623;52.120;8.660;2024-03-23T09:27:50;22.40;43.00
13115;DHT22;6623;52.120;8.660;2024-03-23T09:30:16;22.30;43.00
13115;DHT22;6623;52.120;8.660;2024-03-23T09:32:43;22.30;43.10
13115;DHT22;6623;52.120;8.660;2024-03-23T09:35:09;22.20;43.10
13115;DHT22;6623;52.120;8.660;2024-03-23T09:37:34;22.20;43.20
13115;DHT22;6623;52.120;8.660;2024-03-23T09:40:00;22.20;43.20
13115;DHT22;6623;52.120;8.660;2024-03-23T09:42:26;22.10;43.30
13115;DHT22;6623;52.120;8.660;2024-03-23T09:44:51;22.10;43.30
13115;DHT22;6623;52.120;8.660;2024-03-23T09:47:17;22.10;43.40
13115;DHT22;6623;52.120;8.660;2024-03-23T09:49:43;22.10;43.50
13115;DHT22;6623;52.120;8.660;2024-03-23T09:52:09;22.10;43.50
13115;DHT22;6623;52.120;8.660;2024-03-23T09:54:34;22.10;43.50
13115;DHT22;6623;52.120;8.660;2024-03-23T09:57:00;22.10;43.50
13115;DHT22;6623;52.120;8.660;2024-03-23T09:59:26;22.10;43.40
13115;DHT22;6623;52.120;8.660;2024-03-23T10:01:53;22.20;43.50
13115;DHT22;6623;52.120;8.660;2024-03-23T10:04:41;22.20;43.50
13115;DHT22;6623;52.120;8.660;2024-03-23T10:07:19;22.20;43.40
13115;DHT22;6623;52.120;8.660;2024-03-23T10:09:45;22.30;43.40
13115;DHT22;6623;52.120;8.660;2024-03-23T10:12:13;22.30;43.20
13115;DHT22;6623;52.120;8.660;2024-03-23T10:14:40;22.40;43.20
13115;DHT22;6623;52.120;8.660;2024-03-23T10:17:23;22.40;43.10
13115;DHT22;6623;52.120;8.660;2024-03-23T10:19:51;22.50;43.10
13115;DHT22;6623;52.120;8.660;2024-03-23T10:22:22;22.60;43.10
13115;DHT22;6623;52.120;8.660;2024-03-23T10:24:48;22.60;43.00
13115;DHT22;6623;52.120;8.660;2024-03-23T10:27:19;22.70;43.00
13115;DHT22;6623;52.120;8.660;2024-03-23T10:29:48;22.70;42.80
13115;DHT22;6623;52.120;8.660;2024-03-23T10:32:16;22.80;42.80
13115;DHT22;6623;52.120;8.660;2024-03-23T10:34:42;22.80;42.70
13115;DHT22;6623;52.120;8.660;2024-03-23T10:37:08;22.80;42.60
13115;DHT22;6623;52.120;8.660;2024-03-23T10:39:41;22.90;42.60
13115;DHT22;6623;52.120;8.660;2024-03-23T10:42:09;22.90;42.50
13115;DHT22;6623;52.120;8.660;2024-03-23T10:44:38;23.00;42.50
13115;DHT22;6623;52.120;8.660;2024-03-23T10:47:05;22.90;42.30
13115;DHT22;6623;52.120;8.660;2024-03-23T10:49:32;23.00;42.30
13115;DHT22;6623;52.120;8.660;2024-03-23T10:51:59;22.90;42.20
13115;DHT22;6623;52.120;8.660;2024-03-23T10:54:26;22.90;42.30
13115;DHT22;6623;52.120;8.660;2024-03-23T10:57:04;22.90;42.30
13115;DHT22;6623;52.120;8.660;2024-03-23T10:59:32;22.90;42.30
13115;DHT22;6623;52.120;8.660;2024-03-23T11:01:59;22.80;42.30
13115;DHT22;6623;52.120;8.660;2024-03-23T11:04:32;22.80;42.40
13115;DHT22;6623;52.120;8.660;2024-03-23T11:06:58;22.70;42.40
13115;DHT22;6623;52.120;8.660;2024-03-23T11:15:05;22.60;42.60
13115;DHT22;6623;52.120;8.660;2024-03-23T11:17:31;22.50;42.60
13115;DHT22;6623;52.120;8.660;2024-03-23T11:19:58;22.40;42.60
13115;DHT22;6623;52.120;8.660;2024-03-23T11:22:46;22.40;42.70
13115;DHT22;6623;52.120;8.660;2024-03-23T11:25:16;22.30;42.70
13115;DHT22;6623;52.120;8.660;2024-03-23T11:27:43;22.30;42.80
13115;DHT22;6623;52.120;8.660;2024-03-23T11:32:50;22.20;42.90
13115;DHT22;6623;52.120;8.660;2024-03-23T11:35:37;22.20;43.00
13115;DHT22;6623;52.120;8.660;2024-03-23T11:38:16;22.20;43.10
13115;DHT22;6623;52.120;8.660;2024-03-23T11:40:49;22.10;43.00
13115;DHT22;6623;52.120;8.660;2024-03-23T11:43:16;22.10;43.10
13115;DHT22;6623;52.120;8.660;2024-03-23T11:45:43;22.10;43.20
13115;DHT22;6623;52.120;8.660;2024-03-23T11:48:11;22.10;43.30
13115;DHT22;6623;52.120;8.660;2024-03-23T11:50:41;22.10;43.30
13115;DHT22;6623;52.120;8.660;2024-03-23T11:53:13;22.10;43.30
13115;DHT22;6623;52.120;8.660;2024-03-23T11:58:19;22.10;43.30
13115;DHT22;6623;52.120;8.660;2024-03-23T12:00:58;22.10;43.30
13115;DHT22;6623;52.120;8.660;2024-03-23T12:03:25;22.10;43.30
13115;DHT22;6623;52.120;8.660;2024-03-23T12:05:53;22.20;43.30
13115;DHT22;6623;52.120;8.660;2024-03-23T12:10:48;22.30;43.10
13115;DHT22;6623;52.120;8.660;2024-03-23T12:13:21;22.30;43.10
13115;DHT22;6623;52.120;8.660;2024-03-23T12:15:49;22.40;43.00
13115;DHT22;6623;52.120;8.660;2024-03-23T12:18:15;22.40;42.90
13115;DHT22;6623;52.120;8.660;2024-03-23T12:20:40;22.50;42.90
13115;DHT22;6623;52.120;8.660;2024-03-23T12:23:12;22.50;42.80
13115;DHT22;6623;52.120;8.660;2024-03-23T12:25:39;22.60;42.80
13115;DHT22;6623;52.120;8.660;2024-03-23T12:28:05;22.60;42.70
13115;DHT22;6623;52.120;8.660;2024-03-23T12:30:33;22.70;42.60
13115;DHT22;6623;52.120;8.660;2024-03-23T12:32:58;22.70;42.60
13115;DHT22;6623;52.120;8.660;2024-03-23T12:35:24;22.80;42.50
13115;DHT22;6623;52.120;8.660;2024-03-23T12:37:49;22.80;42.40
13115;DHT22;6623;52.120;8.660;2024-03-23T12:40:15;22.90;42.40
13115;DHT22;6623;52.120;8.660;2024-03-23T12:42:41;22.90;42.30
13115;DHT22;6623;52.120;8.660;2024-03-23T12:45:06;22.90;42.30
13115;DHT22;6623;52.120;8.660;2024-03-23T12:47:32;22.90;42.20
13115;DHT22;6623;52.120;8.660;2024-03-23T12:49:58;22.90;42.10
13115;DHT22;6623;52.120;8.660;2024-03-23T12:52:23;22.90;42.10
13115;DHT22;6623;52.120;8.660;2024-03-23T12:54:56;22.90;42.10
13115;DHT22;6623;52.120;8.660;2024-03-23T12:57:23;22.80;42.10
13115;DHT22;6623;52.120;8.660;2024-03-23T12:59:50;22.80;42.10
13115;DHT22;6623;52.120;8.660;2024-03-23T13:02:20;22.80;42.20
13115;DHT22;6623;52.120;8.660;2024-03-23T13:04:55;22.70;42.20
13115;DHT22;6623;52.120;8.660;2024-03-23T13:07:22;22.70;42.30
13115;DHT22;6623;52.120;8.660;2024-03-23T13:09:50;22.60;42.30
13115;DHT22;6623;52.120;8.660;2024-03-23T13:12:16;22.60;42.40
13115;DHT22;6623;52.120;8.660;2024-03-23T13:14:44;22.60;42.50
13115;DHT22;6623;52.120;8.660;2024-03-23T13:17:09;22.50;42.50
13115;DHT22;6623;52.120;8.660;2024-03-23T13:19:35;22.40;42.50
13115;DHT22;6623;52.120;8.660;2024-03-23T13:22:01;22.40;42.60
13115;DHT22;6623;52.120;8.660;2024-03-23T13:24:30;22.40;42.70
13115;DHT22;6623;52.120;8.660;2024-03-23T13:26:56;22.30;42.70
13115;DHT22;6623;52.120;8.660;2024-03-23T13:29:23;22.30;42.80
13115;DHT22;6623;52.120;8.660;2024-03-23T13:31:50;22.20;42.80
13115;DHT22;6623;52.120;8.660;2024-03-23T13:34:16;22.20;42.80
13115;DHT22;6623;52.120;8.660;2024-03-23T13:36:42;22.20;42.90
13115;DHT22;6623;52.120;8.660;2024-03-23T13:39:08;22.10;42.90
13115;DHT22;6623;52.120;8.660;2024-03-23T13:41:43;22.10;43.00
13115;DHT22;6623;52.120;8.660;2024-03-23T13:44:13;22.10;43.00
13115;DHT22;6623;52.120;8.660;2024-03-23T13:46:40;22.10;43.10
13115;DHT22;6623;52.120;8.660;2024-03-23T13:49:25;22.00;43.10
13115;DHT22;6623;52.120;8.660;2024-03-23T13:51:51;22.00;43.10
13115;DHT22;6623;52.120;8.660;2024-03-23T13:54:17;22.00;43.20
13115;DHT22;6623;52.120;8.660;2024-03-23T13:56:42;22.00;43.20
13115;DHT22;6623;52.120;8.660;2024-03-23T13:59:08;22.10;43.30
13115;DHT22;6623;52.120;8.660;2024-03-23T14:01:33;22.10;43.20
13115;DHT22;6623;52.120;8.660;2024-03-23T14:03:59;22.10;43.10
13115;DHT22;6623;52.120;8.660;2024-03-23T14:06:24;22.20;43.10
13115;DHT22;6623;52.120;8.660;2024-03-23T14:08:50;22.20;43.00
13115;DHT22;6623;52.120;8.660;2024-03-23T14:11:18;22.30;43.00
13115;DHT22;6623;52.120;8.660;2024-03-23T14:13:44;22.30;42.90
13115;DHT22;6623;52.120;8.660;2024-03-23T14:16:09;22.40;42.90
13115;DHT22;6623;52.120;8.660;2024-03-23T14:18:35;22.40;42.80
13115;DHT22;6623;52.120;8.660;2024-03-23T14:21:01;22.50;42.80
13115;DHT22;6623;52.120;8.660;2024-03-23T14:23:28;22.50;42.70
13115;DHT22;6623;52.120;8.660;2024-03-23T14:25:55;22.60;42.70
13115;DHT22;6623;52.120;8.660;2024-03-23T14:28:21;22.60;42.60
13115;DHT22;6623;52.120;8.660;2024-03-23T14:30:48;22.70;42.60
13115;DHT22;6623;52.120;8.660;2024-03-23T14:33:15;22.70;42.50
13115;DHT22;6623;52.120;8.660;2024-03-23T14:35:40;22.80;42.50
13115;DHT22;6623;52.120;8.660;2024-03-23T14:38:06;22.80;42.30
13115;DHT22;6623;52.120;8.660;2024-03-23T14:40:31;22.80;42.30
13115;DHT22;6623;52.120;8.660;2024-03-23T14:42:57;22.80;42.20
13115;DHT22;6623;52.120;8.660;2024-03-23T14:45:22;22.90;42.20
13115;DHT22;6623;52.120;8.660;2024-03-23T14:47:52;22.90;42.10
13115;DHT22;6623;52.120;8.660;2024-03-23T14:50:18;22.90;42.10
13115;DHT22;6623;52.120;8.660;2024-03-23T14:52:45;22.90;42.10
13115;DHT22;6623;52.120;8.660;2024-03-23T14:55:11;22.90;42.10
13115;DHT22;6623;52.120;8.660;2024-03-23T14:57:37;22.80;42.00
13115;DHT22;6623;52.120;8.660;2024-03-23T15:00:07;22.80;42.10
13115;DHT22;6623;52.120;8.660;2024-03-23T15:02:33;22.70;42.10
13115;DHT22;6623;52.120;8.660;2024-03-23T15:05:00;22.70;42.20
13115;DHT22;6623;52.120;8.660;2024-03-23T15:07:25;22.70;42.30
13115;DHT22;6623;52.120;8.660;2024-03-23T15:09:51;22.60;42.50
13115;DHT22;6623;52.120;8.660;2024-03-23T15:12:16;22.60;42.30
13115;DHT22;6623;52.120;8.660;2024-03-23T15:14:42;22.50;42.40
13115;DHT22;6623;52.120;8.660;2024-03-23T15:17:07;22.40;42.40
13115;DHT22;6623;52.120;8.660;2024-03-23T15:19:34;22.40;42.40
13115;DHT22;6623;52.120;8.660;2024-03-23T15:21:59;22.40;42.50
13115;DHT22;6623;52.120;8.660;2024-03-23T15:24:25;22.30;42.60
13115;DHT22;6623;52.120;8.660;2024-03-23T15:26:51;22.30;42.60
13115;DHT22;6623;52.120;8.660;2024-03-23T15:29:17;22.20;42.60
13115;DHT22;6623;52.120;8.660;2024-03-23T15:31:43;22.20;42.70
13115;DHT22;6623;52.120;8.660;2024-03-23T15:34:10;22.20;42.80
13115;DHT22;6623;52.120;8.660;2024-03-23T15:36:37;22.10;42.80
13115;DHT22;6623;52.120;8.660;2024-03-23T15:39:04;22.10;42.80
13115;DHT22;6623;52.120;8.660;2024-03-23T15:41:30;22.10;42.80
13115;DHT22;6623;52.120;8.660;2024-03-23T15:43:56;22.10;42.90
13115;DHT22;6623;52.120;8.660;2024-03-23T15:46:22;22.10;43.00
13115;DHT22;6623;52.120;8.660;2024-03-23T15:48:47;22.00;43.00
13115;DHT22;6623;52.120;8.660;2024-03-23T15:51:14;22.00;43.00
13115;DHT22;6623;52.120;8.660;2024-03-23T15:53:39;22.10;43.10
13115;DHT22;6623;52.120;8.660;2024-03-23T15:56:05;22.10;43.10
13115;DHT22;6623;52.120;8.660;2024-03-23T15:58:32;22.10;43.10
13115;DHT22;6623;52.120;8.660;2024-03-23T16:01:07;22.10;43.00
13115;DHT22;6623;52.120;8.660;2024-03-23T16:03:36;22.10;43.00
13115;DHT22;6623;52.120;8.660;2024-03-23T16:06:04;22.20;43.00
13115;DHT22;6623;52.120;8.660;2024-03-23T16:08:30;22.20;42.90
13115;DHT22;6623;52.120;8.660;2024-03-23T16:11:03;22.30;42.90
13115;DHT22;6623;52.120;8.660;2024-03-23T16:13:29;22.30;42.80
13115;DHT22;6623;52.120;8.660;2024-03-23T16:16:02;22.40;42.70
13115;DHT22;6623;52.120;8.660;2024-03-23T16:18:35;22.40;42.60
13115;DHT22;6623;52.120;8.660;2024-03-23T16:21:03;22.50;42.60
13115;DHT22;6623;52.120;8.660;2024-03-23T16:23:29;22.60;42.60
13115;DHT22;6623;52.120;8.660;2024-03-23T16:25:55;22.60;42.50
13115;DHT22;6623;52.120;8.660;2024-03-23T16:28:32;22.60;42.40
13115;DHT22;6623;52.120;8.660;2024-03-23T16:30:59;22.70;42.40
13115;DHT22;6623;52.120;8.660;2024-03-23T16:33:26;22.70;42.90
13115;DHT22;6623;52.120;8.660;2024-03-23T16:38:21;22.80;42.10
13115;DHT22;6623;52.120;8.660;2024-03-23T16:40:59;22.90;42.10
13115;DHT22;6623;52.120;8.660;2024-03-23T16:43:26;22.90;42.00
13115;DHT22;6623;52.120;8.660;2024-03-23T16:45:59;22.90;42.00
13115;DHT22;6623;52.120;8.660;2024-03-23T16:48:29;22.90;41.90
13115;DHT22;6623;52.120;8.660;2024-03-23T16:50:59;22.90;41.90
13115;DHT22;6623;52.120;8.660;2024-03-23T16:53:25;22.90;41.90